メインページ
METAR-TAF:

METAR-TAF

空港 :

ニューオーリンズ, ルイジアナ州, アメリカ合衆国

ルイ・アームストロング・ニューオーリンズ国際空港

緯度: 29-59-34N, 経度: 090-15-03W, 海抜: 1m

現時点の気象観測

当レポートは8分前の11:53(UTC)に作成
南東の風 10kt
気温 20°C
湿度 88%
気圧 1021 hPa
視程: 11.3km
高度1700ftの雲はほとんどない
高度15000ftの千切れ雲あり
高度25000ftの千切れ雲あり

METAR: KMSY 241153Z 13010KT 7SM FEW017 BKN150 BKN250 20/18 A3015 RMK AO2 SLP212 T02000183 10206 20194 53001 $

時間: 07:01 (12:01 UTC)

予報

当レポートは39分前の11:22(UTC)に作成
予報は24日の 12時(UTC)から 25日の 12時(UTC)まで有効
南東の風 10kt
視程: 10km
高度1500ftの雲は散在している
高度25000ftの千切れ雲あり
24日の 1400時(UTC)から
南東の風 12kt
視程: 10km
高度4000ftの千切れ雲あり
25日の 0300時(UTC)から
南/南東の風 13kt、最大24ktの突風を伴う
視程: 10km
高度1500ftの千切れ雲あり
確率 30%
25日の 09時(UTC)から 25日の 12時(UTC)まで
視程: 6.4km
高度700ftの曇り, 積乱雲.
激しい雷雨, 雨

TAF: KMSY 241122Z 2412/2512 14010KT P6SM SCT015 BKN250 FM241400 14012KT P6SM BKN040 FM250300 15013G24KT P6SM BKN015 PROB30 2509/2512 4SM TSRA OVC007CB

4,000以上の空港の気象観測と天気予報(METAR報とTAF報)

利用可能な観測所は地図上に黄色い丸と赤い丸で示す。

丸の上にカーソルを重ねると観測所名を参照できる。

次にクリックすると気象観測と天気予報を参照できる。

マップの切り替え:黒色「×」印の緑ボタンをクリックして拡大、「-」印の緑ボタンをクリックして縮小、緑色の三角印をクリックして隣りの地図に切り替え


METAR-TAF: